Time;durP1;ratioP1;P1;durP2;ratioP2;P2;SDS_P1;SDS_P2;PMS_P1;PMS_P2;Temp;Humidity;BMP_temperature;BMP_pressure;BME280_temperature;BME280_humidity;BME280_pressure;Samples;Min_cycle;Max_cycle;Signal;HPM_P1;HPM_P2
2023/10/20 00:01:07;;;;;;;24.70;14.07;;;14.80;90.80;;;;;;5000403;28;20236;-70
2023/10/20 00:03:33;;;;;;;26.27;13.70;;;14.70;90.80;;;;;;4997660;28;20427;-69
2023/10/20 00:05:58;;;;;;;25.07;14.53;;;14.80;90.80;;;;;;4984912;28;20214;-70
2023/10/20 00:08:24;;;;;;;24.37;14.73;;;14.70;90.70;;;;;;4995554;28;20184;-70
2023/10/20 00:10:49;;;;;;;24.57;14.77;;;14.60;90.70;;;;;;4997975;28;20617;-70
2023/10/20 00:13:15;;;;;;;26.63;15.47;;;14.70;90.80;;;;;;4999022;28;20181;-70
2023/10/20 00:15:44;;;;;;;23.00;14.33;;;14.60;90.70;;;;;;4984410;28;20249;-70
2023/10/20 00:18:10;;;;;;;22.00;14.27;;;14.70;90.70;;;;;;4996887;28;20210;-70
2023/10/20 00:20:35;;;;;;;20.67;12.47;;;14.60;90.60;;;;;;4996463;28;20427;-70
2023/10/20 00:23:01;;;;;;;20.60;13.50;;;14.60;90.50;;;;;;4995600;28;20225;-70
2023/10/20 00:25:27;;;;;;;22.47;13.40;;;14.60;90.60;;;;;;4986212;28;20691;-69
2023/10/20 00:27:52;;;;;;;24.23;13.43;;;14.70;90.50;;;;;;4993115;28;20602;-70
2023/10/20 00:30:18;;;;;;;16.90;11.47;;;14.60;90.30;;;;;;4997585;28;20286;-70
2023/10/20 00:32:45;;;;;;;22.60;13.93;;;14.60;90.40;;;;;;4993493;28;20276;-69
2023/10/20 00:35:13;;;;;;;24.00;15.47;;;14.60;90.20;;;;;;4998233;28;20192;-71
2023/10/20 00:37:39;;;;;;;22.07;12.00;;;14.60;90.10;;;;;;4992150;28;20473;-70
2023/10/20 00:40:09;;;;;;;19.10;11.60;;;14.60;90.00;;;;;;5000427;28;20446;-69
2023/10/20 00:42:35;;;;;;;19.47;11.60;;;14.60;89.70;;;;;;4993099;28;20434;-70
2023/10/20 00:45:01;;;;;;;22.17;12.90;;;14.60;89.60;;;;;;5001220;28;20424;-70
2023/10/20 00:47:27;;;;;;;24.00;13.20;;;14.60;89.50;;;;;;4995074;28;20437;-71
2023/10/20 00:49:53;;;;;;;18.27;11.73;;;14.60;89.60;;;;;;4998103;28;20263;-70
2023/10/20 00:52:21;;;;;;;18.90;12.57;;;14.60;89.70;;;;;;4995324;28;20432;-70
2023/10/20 00:54:47;;;;;;;21.10;12.40;;;14.60;89.70;;;;;;4996947;28;20518;-70
2023/10/20 00:57:16;;;;;;;21.23;12.33;;;14.60;89.70;;;;;;4989321;28;20513;-69
2023/10/20 00:59:42;;;;;;;19.10;12.00;;;14.70;89.90;;;;;;5000631;28;20577;-70
2023/10/20 01:02:08;;;;;;;19.50;11.03;;;14.70;89.70;;;;;;4990729;28;20430;-70
2023/10/20 01:04:34;;;;;;;23.60;13.13;;;14.70;89.90;;;;;;4995661;28;21190;-70
2023/10/20 01:07:00;;;;;;;25.93;14.50;;;14.70;89.90;;;;;;4987232;28;20243;-70
2023/10/20 01:09:26;;;;;;;20.43;12.60;;;14.60;89.60;;;;;;4990178;28;20426;-70
2023/10/20 01:11:53;;;;;;;20.87;13.23;;;14.60;89.70;;;;;;4990226;28;20191;-70
2023/10/20 01:14:19;;;;;;;26.10;14.07;;;14.60;89.70;;;;;;4990357;28;21110;-69
2023/10/20 01:16:45;;;;;;;21.00;13.47;;;14.60;89.70;;;;;;4982849;28;21378;-71
2023/10/20 01:19:11;;;;;;;19.37;11.03;;;14.60;89.90;;;;;;4990018;28;20411;-69
2023/10/20 01:21:37;;;;;;;19.20;10.67;;;14.60;90.00;;;;;;4990759;28;21217;-69
2023/10/20 01:24:04;;;;;;;27.17;15.50;;;14.70;90.00;;;;;;4988012;28;20187;-69
2023/10/20 01:26:33;;;;;;;18.20;11.20;;;14.70;89.70;;;;;;4980168;28;21028;-70
2023/10/20 01:28:59;;;;;;;20.03;12.97;;;14.60;89.60;;;;;;4991226;28;20421;-70
2023/10/20 01:31:24;;;;;;;22.30;11.87;;;14.60;89.70;;;;;;4990208;28;20415;-70
2023/10/20 01:33:50;;;;;;;18.70;11.33;;;14.60;89.70;;;;;;4989551;28;20888;-69
2023/10/20 01:36:16;;;;;;;20.97;10.90;;;14.60;89.90;;;;;;4985691;28;20226;-70
2023/10/20 01:38:42;;;;;;;18.43;11.30;;;14.70;90.00;;;;;;4989162;28;20542;-69
2023/10/20 01:41:07;;;;;;;20.13;10.77;;;14.60;89.70;;;;;;4989701;28;20711;-68
2023/10/20 01:43:33;;;;;;;16.40;9.77;;;14.60;89.90;;;;;;4989477;28;20183;-70
2023/10/20 01:46:03;;;;;;;18.57;10.90;;;14.70;89.90;;;;;;4991564;28;20211;-70
2023/10/20 01:48:30;;;;;;;16.00;9.70;;;14.70;89.90;;;;;;4992497;28;20422;-70
2023/10/20 01:50:56;;;;;;;15.33;9.53;;;14.70;89.70;;;;;;4993876;28;20497;-69
2023/10/20 01:53:22;;;;;;;16.93;10.13;;;14.70;89.70;;;;;;4991787;28;20434;-70
2023/10/20 01:55:49;;;;;;;17.60;11.57;;;14.70;89.90;;;;;;4988707;28;20453;-70
2023/10/20 01:58:19;;;;;;;14.43;8.03;;;14.60;89.60;;;;;;4992595;28;20930;-69
2023/10/20 02:00:48;;;;;;;13.63;7.90;;;14.60;89.70;;;;;;4994706;28;20414;-69
2023/10/20 02:03:14;;;;;;;13.20;8.00;;;14.60;89.70;;;;;;4993356;28;20411;-70
2023/10/20 02:05:39;;;;;;;11.70;7.50;;;14.50;89.70;;;;;;4991156;28;20488;-70
2023/10/20 02:08:08;;;;;;;10.23;7.53;;;14.40;89.90;;;;;;4992591;28;20186;-70
2023/10/20 02:10:34;;;;;;;7.57;5.80;;;14.50;90.00;;;;;;4994839;28;20187;-69
2023/10/20 02:13:00;;;;;;;10.53;6.00;;;14.40;90.00;;;;;;4992866;28;20469;-70
2023/10/20 02:15:26;;;;;;;11.40;7.20;;;14.40;90.10;;;;;;4988314;28;20829;-70
2023/10/20 02:17:51;;;;;;;12.90;8.00;;;14.50;90.00;;;;;;4990482;28;20504;-70
2023/10/20 02:20:20;;;;;;;14.57;7.50;;;14.40;90.00;;;;;;4993209;28;20305;-70
2023/10/20 02:22:55;;;;;;;13.30;7.27;;;14.30;90.00;;;;;;4993397;28;20214;-69
2023/10/20 02:25:21;;;;;;;16.57;9.90;;;14.30;90.10;;;;;;4989093;28;20583;-69
2023/10/20 02:27:47;;;;;;;10.37;6.90;;;14.40;90.30;;;;;;4990902;28;20521;-70
2023/10/20 02:30:15;;;;;;;9.63;6.53;;;14.40;90.30;;;;;;4993988;28;20407;-69
2023/10/20 02:32:42;;;;;;;20.13;12.37;;;14.50;90.30;;;;;;4994683;28;20955;-70
2023/10/20 02:35:08;;;;;;;14.90;8.93;;;14.50;90.30;;;;;;4991051;28;21023;-70
2023/10/20 02:37:34;;;;;;;20.17;10.73;;;14.50;90.10;;;;;;4990972;28;20481;-70
2023/10/20 02:40:04;;;;;;;20.37;13.07;;;14.40;90.20;;;;;;4992164;28;20456;-72
2023/10/20 02:42:30;;;;;;;21.23;11.57;;;14.40;90.30;;;;;;4992392;28;20195;-70
2023/10/20 02:44:56;;;;;;;15.87;9.10;;;14.30;90.30;;;;;;4992153;28;20419;-72
2023/10/20 02:47:22;;;;;;;15.17;9.07;;;14.30;90.40;;;;;;4985307;28;20536;-71
2023/10/20 02:49:51;;;;;;;15.03;9.43;;;14.40;90.50;;;;;;4993275;28;20179;-71
2023/10/20 02:52:17;;;;;;;17.83;10.53;;;14.40;90.60;;;;;;4991332;28;20449;-71
2023/10/20 02:54:43;;;;;;;24.50;11.27;;;14.60;90.40;;;;;;4993473;28;20418;-70
2023/10/20 02:57:08;;;;;;;23.77;11.77;;;14.50;90.20;;;;;;4985051;28;20595;-69
2023/10/20 02:59:34;;;;;;;18.23;11.60;;;14.50;90.00;;;;;;4992301;28;20248;-70
2023/10/20 03:02:00;;;;;;;18.90;10.47;;;14.40;90.00;;;;;;4993073;28;20678;-71
2023/10/20 03:04:25;;;;;;;19.43;11.07;;;14.40;90.00;;;;;;4991876;28;20188;-68
2023/10/20 03:06:51;;;;;;;15.97;9.50;;;14.40;90.10;;;;;;4986367;28;20465;-69
2023/10/20 03:09:17;;;;;;;15.50;10.00;;;14.40;90.10;;;;;;4991923;28;20187;-69
2023/10/20 03:11:43;;;;;;;16.00;9.30;;;14.40;90.20;;;;;;4991991;28;20415;-69
2023/10/20 03:14:09;;;;;;;16.30;10.33;;;14.30;90.30;;;;;;4991699;28;20430;-69
2023/10/20 03:16:38;;;;;;;20.80;10.80;;;14.20;90.30;;;;;;4987855;28;20215;-69
2023/10/20 03:19:04;;;;;;;18.40;11.27;;;14.20;90.40;;;;;;4991703;28;20710;-70
2023/10/20 03:21:30;;;;;;;17.53;9.77;;;14.20;90.50;;;;;;4991760;28;20418;-69
2023/10/20 03:23:56;;;;;;;18.60;9.30;;;14.20;90.70;;;;;;4991807;28;20190;-69
2023/10/20 03:26:22;;;;;;;17.20;9.57;;;14.20;90.80;;;;;;4986906;28;20475;-69
2023/10/20 03:28:48;;;;;;;16.10;9.70;;;14.30;91.00;;;;;;4991825;28;20187;-69
2023/10/20 03:31:13;;;;;;;15.90;9.10;;;14.30;91.00;;;;;;4991651;28;20527;-69
2023/10/20 03:33:39;;;;;;;19.03;9.83;;;14.30;91.10;;;;;;4991675;28;20226;-70
2023/10/20 03:36:05;;;;;;;15.20;8.80;;;14.40;91.10;;;;;;4987649;28;20219;-70
2023/10/20 03:38:31;;;;;;;16.70;9.50;;;14.40;91.20;;;;;;4990980;28;20182;-69
2023/10/20 03:41:06;;;;;;;15.00;8.93;;;14.50;91.10;;;;;;4991374;28;20431;-68
2023/10/20 03:43:32;;;;;;;14.93;8.80;;;14.50;91.00;;;;;;4991300;28;20932;-69
2023/10/20 03:46:00;;;;;;;15.77;8.50;;;14.50;90.90;;;;;;4983400;28;20466;-68
2023/10/20 03:48:27;;;;;;;14.63;8.37;;;14.50;90.90;;;;;;4990707;28;20215;-68
2023/10/20 03:50:53;;;;;;;13.90;8.10;;;14.50;90.90;;;;;;4991539;28;20512;-69
2023/10/20 03:53:22;;;;;;;21.20;9.60;;;14.60;90.90;;;;;;4991019;28;20426;-68
2023/10/20 03:56:04;;;;;;;14.23;9.30;;;14.60;90.60;;;;;;4984318;28;20534;-70
2023/10/20 03:58:30;;;;;;;14.67;8.23;;;14.50;90.40;;;;;;4993747;28;20434;-70
2023/10/20 04:00:57;;;;;;;19.67;9.87;;;14.50;90.30;;;;;;4991183;28;20414;-69
2023/10/20 04:03:26;;;;;;;17.07;10.60;;;14.50;90.20;;;;;;4989932;28;20432;-69
2023/10/20 04:05:52;;;;;;;17.60;10.73;;;14.50;90.30;;;;;;4983898;28;21150;-69
2023/10/20 04:08:18;;;;;;;15.40;10.77;;;14.40;90.40;;;;;;4992600;28;20424;-69
2023/10/20 04:10:44;;;;;;;17.53;11.00;;;14.50;90.40;;;;;;4997553;28;20430;-71
2023/10/20 04:13:12;;;;;;;19.20;11.60;;;14.50;90.40;;;;;;4995873;28;20416;-69
2023/10/20 04:15:39;;;;;;;20.87;11.67;;;14.50;90.40;;;;;;4987642;28;20214;-70
2023/10/20 04:18:05;;;;;;;20.07;10.53;;;14.50;90.40;;;;;;4993723;28;20625;-70
2023/10/20 04:20:34;;;;;;;23.20;10.80;;;14.50;90.40;;;;;;4993808;28;20431;-70
2023/10/20 04:23:00;;;;;;;20.80;10.77;;;14.50;90.40;;;;;;4992512;28;20959;-69
2023/10/20 04:25:33;;;;;;;21.63;10.70;;;14.50;90.40;;;;;;4996470;28;20544;-70
2023/10/20 04:28:12;;;;;;;19.77;11.03;;;14.50;90.40;;;;;;4992210;28;20186;-70
2023/10/20 04:41:54;;;;;;;27.13;15.50;;;14.40;90.50;;;;;;4999465;28;20478;-68
2023/10/20 04:50:00;;;;;;;24.93;15.37;;;14.20;90.80;;;;;;4990128;28;20182;-70
2023/10/20 05:10:36;;;;;;;23.30;13.20;;;14.30;90.90;;;;;;4994622;28;20465;-70
2023/10/20 05:13:01;;;;;;;19.40;11.80;;;14.20;90.80;;;;;;4995377;28;20449;-69
2023/10/20 05:15:31;;;;;;;22.33;14.20;;;14.10;90.80;;;;;;4987862;28;20321;-71
2023/10/20 05:17:57;;;;;;;22.80;11.90;;;14.20;90.90;;;;;;4994606;28;20230;-69
2023/10/20 05:20:23;;;;;;;31.40;16.43;;;14.10;90.90;;;;;;4994858;28;20425;-69
2023/10/20 05:22:49;;;;;;;27.07;15.03;;;14.10;91.00;;;;;;5002137;28;20509;-70
2023/10/20 05:25:15;;;;;;;30.00;17.87;;;14.10;91.00;;;;;;4991663;28;20875;-69
2023/10/20 05:27:42;;;;;;;25.73;13.67;;;14.10;91.00;;;;;;4995759;28;20528;-69
2023/10/20 05:30:08;;;;;;;20.43;12.50;;;14.00;91.00;;;;;;5001371;28;20438;-70
2023/10/20 05:32:37;;;;;;;24.80;14.23;;;14.10;91.10;;;;;;5000328;28;20433;-69
2023/10/20 05:35:04;;;;;;;28.53;13.37;;;14.10;91.20;;;;;;4997631;28;21010;-70
2023/10/20 05:37:30;;;;;;;23.70;13.30;;;14.10;91.10;;;;;;4993974;28;20471;-69
2023/10/20 05:39:56;;;;;;;29.07;14.50;;;14.00;91.10;;;;;;5003352;28;20511;-70
2023/10/20 05:42:21;;;;;;;19.67;13.20;;;14.00;91.10;;;;;;4997512;28;20522;-69
2023/10/20 05:47:45;;;;;;;15.40;8.57;;;14.00;91.20;;;;;;4970426;28;20203;-69
2023/10/20 05:50:11;;;;;;;15.93;8.43;;;14.10;91.20;;;;;;4971396;28;20422;-70
2023/10/20 05:52:37;;;;;;;15.50;9.20;;;14.20;91.00;;;;;;4971586;28;20184;-69
2023/10/20 05:55:03;;;;;;;15.83;8.70;;;14.20;90.70;;;;;;4953797;28;20489;-69
2023/10/20 05:57:29;;;;;;;12.03;6.90;;;14.20;90.50;;;;;;4969892;28;20227;-70
2023/10/20 05:59:55;;;;;;;13.60;7.60;;;14.20;90.30;;;;;;4971559;28;20529;-69
2023/10/20 06:02:22;;;;;;;13.80;8.20;;;14.30;90.10;;;;;;4971256;28;20511;-70
2023/10/20 06:04:48;;;;;;;10.40;6.90;;;14.30;89.90;;;;;;4970864;28;20261;-69
2023/10/20 06:07:14;;;;;;;15.90;7.83;;;14.40;89.60;;;;;;4968462;28;21011;-70
2023/10/20 06:09:39;;;;;;;14.13;8.17;;;14.40;89.50;;;;;;4971198;28;20367;-71
2023/10/20 06:12:07;;;;;;;13.80;7.80;;;14.40;89.30;;;;;;4971300;28;20192;-71
2023/10/20 06:14:32;;;;;;;19.90;10.00;;;14.40;89.20;;;;;;4971564;28;20573;-69
2023/10/20 06:16:58;;;;;;;19.03;9.93;;;14.30;89.00;;;;;;4968365;28;20580;-69
2023/10/20 06:19:24;;;;;;;17.37;8.80;;;14.20;89.00;;;;;;4972405;28;20444;-69
2023/10/20 06:21:50;;;;;;;15.50;8.00;;;14.20;89.30;;;;;;4972500;28;20215;-70
2023/10/20 06:24:16;;;;;;;15.20;8.93;;;14.20;89.50;;;;;;4992079;28;20489;-69
2023/10/20 06:26:42;;;;;;;15.27;8.50;;;14.20;89.50;;;;;;4991381;28;20457;-71
2023/10/20 06:34:42;;;;;;;15.30;8.77;;;13.90;89.50;;;;;;4972259;28;20415;-70
2023/10/20 06:37:08;;;;;;;14.83;9.33;;;13.80;89.70;;;;;;4993592;28;20524;-71
2023/10/20 06:39:38;;;;;;;16.33;9.00;;;14.00;90.00;;;;;;4999657;28;20429;-70
2023/10/20 06:42:06;;;;;;;22.07;10.47;;;13.90;90.00;;;;;;4999166;28;20534;-70
2023/10/20 06:44:34;;;;;;;14.30;8.20;;;13.90;90.00;;;;;;4999646;28;20444;-71
2023/10/20 06:46:59;;;;;;;16.77;8.30;;;13.90;90.20;;;;;;4990830;28;20465;-70
2023/10/20 06:49:26;;;;;;;21.87;10.70;;;13.90;90.20;;;;;;4997550;28;20443;-70
2023/10/20 06:51:51;;;;;;;16.63;9.00;;;13.90;90.20;;;;;;5001225;28;20453;-70
2023/10/20 06:54:18;;;;;;;19.27;9.90;;;13.80;90.20;;;;;;5002562;28;20430;-70
2023/10/20 06:56:44;;;;;;;16.80;10.53;;;14.00;90.30;;;;;;4991762;28;20305;-71
2023/10/20 06:59:16;;;;;;;16.90;9.30;;;14.10;90.10;;;;;;5000660;28;20441;-70
2023/10/20 07:01:43;;;;;;;21.90;11.67;;;14.10;89.90;;;;;;4998608;28;20473;-70
2023/10/20 07:04:09;;;;;;;17.73;9.77;;;14.20;89.90;;;;;;4998976;28;20510;-71
2023/10/20 07:06:37;;;;;;;22.33;11.23;;;14.20;89.90;;;;;;4990468;28;20561;-70
2023/10/20 07:09:11;;;;;;;16.03;9.83;;;14.20;89.90;;;;;;5004538;28;20453;-70
2023/10/20 07:11:38;;;;;;;20.30;10.90;;;14.20;89.90;;;;;;5003366;28;20721;-70
2023/10/20 07:14:07;;;;;;;19.13;9.80;;;14.30;89.90;;;;;;5000538;28;20414;-70
2023/10/20 07:16:33;;;;;;;16.57;10.43;;;14.30;89.90;;;;;;4991995;28;20529;-71
2023/10/20 07:19:00;;;;;;;19.57;11.53;;;14.40;90.10;;;;;;4996277;28;20442;-71
2023/10/20 07:21:25;;;;;;;19.30;10.63;;;14.40;90.20;;;;;;4994177;28;20615;-71
2023/10/20 07:23:52;;;;;;;18.90;11.77;;;14.50;90.20;;;;;;4997929;28;20435;-70
2023/10/20 07:26:17;;;;;;;19.40;11.43;;;14.60;90.20;;;;;;5013833;23;20231;-72
2023/10/20 07:28:46;;;;;;;20.33;11.93;;;14.40;90.10;;;;;;5009893;28;20432;-70
2023/10/20 07:31:14;;;;;;;19.00;11.47;;;14.60;89.90;;;;;;5012250;28;20660;-72
2023/10/20 07:33:40;;;;;;;26.13;13.50;;;14.60;89.30;;;;;;5008367;28;20436;-72
2023/10/20 07:36:06;;;;;;;26.37;12.30;;;14.50;89.00;;;;;;5007789;28;20468;-70
2023/10/20 07:38:32;;;;;;;19.30;11.30;;;14.60;89.00;;;;;;5005566;28;20446;-72
2023/10/20 07:41:09;;;;;;;21.90;11.40;;;14.60;88.60;;;;;;5008838;28;20185;-70
2023/10/20 07:43:35;;;;;;;23.97;12.33;;;14.60;88.40;;;;;;5009517;28;20191;-70
2023/10/20 07:46:00;;;;;;;26.80;12.73;;;14.60;88.40;;;;;;5006227;28;20464;-72
2023/10/20 07:48:26;;;;;;;20.03;11.37;;;14.50;88.60;;;;;;5007960;28;20182;-71
2023/10/20 07:50:52;;;;;;;20.20;12.50;;;14.50;88.60;;;;;;5002151;28;20691;-70
2023/10/20 07:53:19;;;;;;;23.77;12.83;;;14.60;88.90;;;;;;5005590;28;20178;-72
2023/10/20 07:55:44;;;;;;;19.57;11.33;;;14.70;88.90;;;;;;5001268;28;20468;-72
2023/10/20 07:58:10;;;;;;;25.70;14.00;;;14.80;88.90;;;;;;5005904;28;20505;-71
2023/10/20 08:00:36;;;;;;;22.03;11.70;;;14.80;89.00;;;;;;5003048;28;20178;-70
2023/10/20 08:03:05;;;;;;;19.90;11.70;;;14.80;88.90;;;;;;5013832;28;20612;-70
2023/10/20 08:05:34;;;;;;;26.60;13.33;;;14.90;88.60;;;;;;5005513;28;20460;-71
2023/10/20 08:08:01;;;;;;;17.23;11.37;;;15.00;88.30;;;;;;4998505;28;20455;-71
2023/10/20 08:10:27;;;;;;;21.13;11.60;;;15.00;87.80;;;;;;5004476;28;20448;-69
2023/10/20 08:12:54;;;;;;;26.63;14.60;;;15.10;87.70;;;;;;5000381;28;20420;-72
2023/10/20 08:15:20;;;;;;;21.63;12.93;;;15.10;87.30;;;;;;5003681;28;20487;-71
2023/10/20 08:17:46;;;;;;;23.13;11.67;;;15.10;87.00;;;;;;5017916;28;20470;-72
2023/10/20 08:20:12;;;;;;;23.87;13.10;;;15.10;86.90;;;;;;5006529;28;20192;-70
2023/10/20 08:22:38;;;;;;;22.87;11.37;;;15.10;87.00;;;;;;5004488;28;20545;-70
2023/10/20 08:25:04;;;;;;;22.67;12.07;;;15.00;86.80;;;;;;5003118;28;21080;-74
2023/10/20 08:27:30;;;;;;;16.90;10.20;;;15.10;85.20;;;;;;5001848;28;20966;-71
2023/10/20 08:29:57;;;;;;;18.70;11.30;;;15.20;84.40;;;;;;5010608;28;20480;-71
2023/10/20 08:32:26;;;;;;;19.67;12.33;;;15.30;84.60;;;;;;5004191;28;20420;-71
2023/10/20 08:34:53;;;;;;;20.03;11.87;;;15.30;84.60;;;;;;5002305;28;20424;-71
2023/10/20 08:37:18;;;;;;;17.60;11.23;;;15.40;84.10;;;;;;5002602;28;20481;-71
2023/10/20 08:39:44;;;;;;;17.83;11.40;;;15.60;84.10;;;;;;5008307;28;20788;-73
2023/10/20 08:42:18;;;;;;;22.20;11.17;;;15.60;84.00;;;;;;5009680;28;20263;-71
2023/10/20 08:44:45;;;;;;;21.57;12.00;;;15.60;83.00;;;;;;5004361;28;20190;-72
2023/10/20 08:47:15;;;;;;;23.00;12.00;;;15.60;82.20;;;;;;5003790;28;20463;-72
2023/10/20 08:49:41;;;;;;;18.90;11.17;;;15.60;82.10;;;;;;5004475;28;20528;-70
2023/10/20 08:52:08;;;;;;;19.00;11.50;;;15.70;82.80;;;;;;5001828;28;20439;-71
2023/10/20 08:54:34;;;;;;;21.50;11.43;;;15.70;83.60;;;;;;5002359;28;20430;-71
2023/10/20 08:57:00;;;;;;;25.30;14.20;;;15.60;84.30;;;;;;5005510;28;21038;-72
2023/10/20 08:59:25;;;;;;;21.97;11.50;;;15.70;84.30;;;;;;5004537;28;20434;-72
2023/10/20 09:01:51;;;;;;;20.50;12.43;;;15.60;84.30;;;;;;5003109;28;20187;-73
2023/10/20 09:04:25;;;;;;;18.13;10.80;;;15.50;83.10;;;;;;5005005;28;20216;-72
2023/10/20 09:06:52;;;;;;;16.40;10.73;;;15.60;82.80;;;;;;5005070;28;20467;-70
2023/10/20 09:09:19;;;;;;;23.37;11.63;;;15.70;82.50;;;;;;5006213;28;20416;-72
2023/10/20 09:11:46;;;;;;;22.60;12.60;;;15.90;82.20;;;;;;5004808;28;20438;-74
2023/10/20 09:14:12;;;;;;;18.87;11.33;;;16.00;81.80;;;;;;4998131;28;20424;-71
2023/10/20 09:16:39;;;;;;;21.30;12.00;;;16.10;81.50;;;;;;5002177;28;20553;-70
2023/10/20 09:19:04;;;;;;;20.87;9.80;;;16.30;81.20;;;;;;4994938;28;20500;-70
2023/10/20 09:21:30;;;;;;;20.63;11.20;;;16.30;80.80;;;;;;5004392;28;20917;-71
2023/10/20 09:23:59;;;;;;;19.00;10.70;;;16.40;79.90;;;;;;5001085;28;20193;-72
2023/10/20 09:26:26;;;;;;;15.13;10.50;;;16.50;79.90;;;;;;5002195;28;20217;-71
2023/10/20 09:28:54;;;;;;;14.07;8.90;;;16.60;79.70;;;;;;4999782;28;20427;-70
2023/10/20 09:31:20;;;;;;;15.13;9.30;;;16.60;78.10;;;;;;5005678;28;20446;-72
2023/10/20 09:33:46;;;;;;;20.37;10.90;;;16.60;78.10;;;;;;5003603;28;20913;-71
2023/10/20 09:36:12;;;;;;;13.40;9.63;;;16.50;78.30;;;;;;5002132;28;20469;-69
2023/10/20 09:38:38;;;;;;;14.97;8.93;;;16.40;78.60;;;;;;5008363;28;20424;-70
2023/10/20 09:41:17;;;;;;;16.13;8.70;;;16.40;78.90;;;;;;5005996;28;20420;-72
2023/10/20 09:43:55;;;;;;;15.67;8.70;;;16.50;78.90;;;;;;5001064;28;20933;-71
2023/10/20 09:46:39;;;;;;;16.50;8.90;;;16.50;79.20;;;;;;4998486;28;20463;-72
2023/10/20 09:49:19;;;;;;;13.90;8.40;;;16.60;79.50;;;;;;5003909;28;20945;-71
2023/10/20 09:51:47;;;;;;;14.83;8.90;;;16.60;79.30;;;;;;5003035;28;20428;-72
2023/10/20 09:54:16;;;;;;;14.47;8.47;;;16.60;79.50;;;;;;5003120;28;20497;-71
2023/10/20 09:56:44;;;;;;;14.73;8.57;;;16.70;79.50;;;;;;4995464;28;20563;-70
2023/10/20 09:59:16;;;;;;;12.83;7.70;;;16.90;79.60;;;;;;4999157;28;20426;-71
2023/10/20 10:01:43;;;;;;;13.20;7.67;;;17.00;78.70;;;;;;4994670;28;20443;-70
2023/10/20 10:04:10;;;;;;;11.83;7.30;;;17.10;78.60;;;;;;5007117;28;20503;-70
2023/10/20 10:06:37;;;;;;;11.03;6.70;;;17.10;78.70;;;;;;4999504;28;20952;-71
2023/10/20 10:09:06;;;;;;;11.20;7.27;;;17.10;78.90;;;;;;5002418;28;20465;-70
2023/10/20 10:11:39;;;;;;;11.53;6.47;;;17.10;78.60;;;;;;5010312;28;20471;-71
2023/10/20 10:14:05;;;;;;;13.97;7.20;;;17.10;79.00;;;;;;5009925;28;20954;-71
2023/10/20 10:16:53;;;;;;;10.90;6.57;;;17.10;79.30;;;;;;5009576;28;20490;-71
2023/10/20 10:19:21;;;;;;;14.87;8.33;;;17.20;79.30;;;;;;5003654;28;20190;-71
2023/10/20 10:21:53;;;;;;;13.30;6.73;;;17.20;79.30;;;;;;5005348;28;20502;-71
2023/10/20 10:24:19;;;;;;;11.10;6.50;;;17.30;79.00;;;;;;5001173;28;20922;-70
2023/10/20 10:27:06;;;;;;;9.60;5.90;;;17.30;78.70;;;;;;5001695;28;20480;-72
2023/10/20 10:29:53;;;;;;;8.70;6.07;;;17.30;78.40;;;;;;5002628;28;20439;-72
2023/10/20 10:32:22;;;;;;;14.03;5.43;;;17.50;78.70;;;;;;5003194;28;20901;-70
2023/10/20 10:34:51;;;;;;;8.10;4.93;;;17.60;78.60;;;;;;5004901;28;20811;-72
2023/10/20 10:37:27;;;;;;;10.00;3.87;;;17.80;78.30;;;;;;5001355;28;20993;-70
2023/10/20 10:39:52;;;;;;;7.23;4.23;;;17.90;77.40;;;;;;5004508;28;20421;-71
2023/10/20 10:42:19;;;;;;;8.47;4.83;;;18.00;77.30;;;;;;5005407;28;20425;-71
2023/10/20 10:44:44;;;;;;;6.40;3.87;;;18.00;77.40;;;;;;5008531;28;20184;-71
2023/10/20 10:47:19;;;;;;;8.50;4.33;;;18.10;77.10;;;;;;5007766;28;20818;-72
2023/10/20 10:49:49;;;;;;;6.73;4.13;;;18.10;77.10;;;;;;5002087;28;20201;-71
2023/10/20 10:52:16;;;;;;;5.10;3.47;;;18.10;77.30;;;;;;5002766;28;20438;-71
2023/10/20 10:54:41;;;;;;;4.97;3.43;;;18.00;77.40;;;;;;5006485;28;20413;-72
2023/10/20 10:57:09;;;;;;;4.40;3.20;;;18.00;77.60;;;;;;5004840;28;20478;-71
2023/10/20 10:59:35;;;;;;;4.10;2.90;;;18.00;77.40;;;;;;5006625;28;20186;-71
2023/10/20 11:02:03;;;;;;;3.23;2.70;;;18.10;77.00;;;;;;4999605;28;20412;-71
2023/10/20 11:04:29;;;;;;;8.77;2.83;;;18.10;76.70;;;;;;5006677;28;20410;-73
2023/10/20 11:06:55;;;;;;;3.90;2.43;;;18.10;76.40;;;;;;5009142;28;20639;-72
2023/10/20 11:09:26;;;;;;;5.93;1.73;;;18.10;76.50;;;;;;5004162;28;20564;-71
2023/10/20 11:11:52;;;;;;;1.60;1.20;;;18.10;74.60;;;;;;5002329;28;20665;-70
2023/10/20 11:14:19;;;;;;;1.77;1.00;;;18.00;74.00;;;;;;5005104;28;20425;-70
2023/10/20 11:16:45;;;;;;;1.87;1.17;;;18.00;73.60;;;;;;5005786;28;20224;-72
2023/10/20 11:19:14;;;;;;;2.10;1.10;;;18.00;73.30;;;;;;5002873;28;20420;-70
2023/10/20 11:21:47;;;;;;;0.93;0.60;;;18.00;73.50;;;;;;5005037;28;20485;-69
2023/10/20 11:24:26;;;;;;;1.37;1.00;;;17.90;72.90;;;;;;5007002;28;20430;-69
2023/10/20 11:26:59;;;;;;;1.80;1.30;;;17.90;72.90;;;;;;5001637;28;20484;-70
2023/10/20 11:29:28;;;;;;;1.67;0.90;;;17.90;73.20;;;;;;5002749;28;20625;-70
2023/10/20 11:31:56;;;;;;;1.30;0.90;;;18.00;73.00;;;;;;5004650;28;20441;-71
2023/10/20 11:34:22;;;;;;;1.30;0.90;;;17.90;73.60;;;;;;4997094;28;20935;-70
2023/10/20 11:36:48;;;;;;;1.20;0.80;;;17.90;73.30;;;;;;4999116;28;20516;-70
2023/10/20 11:39:15;;;;;;;1.10;0.80;;;17.90;73.90;;;;;;4998412;28;20510;-69
2023/10/20 11:41:41;;;;;;;1.13;0.63;;;17.80;73.60;;;;;;5004871;28;20183;-71
2023/10/20 11:44:07;;;;;;;0.90;0.60;;;17.90;73.70;;;;;;4997724;28;20417;-70
2023/10/20 11:46:33;;;;;;;1.43;0.90;;;17.90;73.70;;;;;;5002027;28;20996;-71
2023/10/20 11:48:58;;;;;;;1.30;0.83;;;17.90;73.70;;;;;;4999338;28;20663;-73
2023/10/20 11:51:24;;;;;;;1.67;0.87;;;17.80;73.70;;;;;;5003866;28;20186;-70
2023/10/20 11:53:50;;;;;;;1.30;0.80;;;17.90;74.20;;;;;;5001808;28;20241;-70
2023/10/20 11:56:16;;;;;;;1.60;0.70;;;17.80;74.00;;;;;;5004585;28;20209;-69
2023/10/20 11:58:42;;;;;;;1.50;0.87;;;17.80;73.70;;;;;;5002081;28;20449;-70
2023/10/20 12:01:08;;;;;;;1.27;0.80;;;17.90;74.20;;;;;;5005841;28;20244;-70
2023/10/20 12:03:33;;;;;;;2.90;0.60;;;17.90;74.30;;;;;;5008624;28;21072;-71
2023/10/20 12:05:59;;;;;;;1.30;1.10;;;17.90;74.30;;;;;;5010438;28;20585;-71
2023/10/20 12:08:25;;;;;;;0.70;0.50;;;18.00;74.30;;;;;;5002464;28;20250;-69
2023/10/20 12:10:50;;;;;;;1.00;0.70;;;18.00;73.90;;;;;;4999027;28;20217;-71
2023/10/20 12:13:16;;;;;;;1.10;0.70;;;17.90;73.70;;;;;;5000056;28;20653;-71
2023/10/20 12:15:42;;;;;;;2.33;0.90;;;17.90;74.20;;;;;;5000057;28;20216;-70
2023/10/20 12:18:08;;;;;;;1.97;1.00;;;17.90;74.60;;;;;;5001387;28;20219;-70
2023/10/20 12:20:33;;;;;;;2.57;0.97;;;17.90;74.60;;;;;;4999391;28;20660;-70
2023/10/20 12:22:59;;;;;;;1.13;0.80;;;18.00;74.60;;;;;;4999014;28;20177;-71
2023/10/20 12:25:25;;;;;;;1.40;1.00;;;18.10;74.30;;;;;;4998829;28;20685;-72
2023/10/20 12:27:52;;;;;;;1.33;0.90;;;18.00;74.00;;;;;;5006080;28;20262;-72
2023/10/20 12:30:17;;;;;;;1.60;0.90;;;18.20;74.00;;;;;;4999764;28;20429;-71
2023/10/20 12:32:43;;;;;;;1.07;0.80;;;18.40;73.60;;;;;;5001589;28;20430;-71
2023/10/20 12:35:13;;;;;;;2.10;0.90;;;18.50;72.70;;;;;;5000505;28;20665;-71
2023/10/20 12:37:38;;;;;;;2.83;0.73;;;18.70;72.00;;;;;;5000927;28;20217;-71
2023/10/20 12:40:05;;;;;;;1.10;0.70;;;19.00;71.40;;;;;;5005807;28;20438;-71
2023/10/20 12:42:32;;;;;;;0.80;0.60;;;19.30;70.70;;;;;;5007962;28;20178;-70
2023/10/20 12:45:00;;;;;;;0.83;0.60;;;19.50;69.50;;;;;;5004783;28;20432;-72
2023/10/20 12:47:26;;;;;;;0.80;0.60;;;19.30;70.20;;;;;;5005867;28;20452;-70
2023/10/20 12:49:54;;;;;;;0.90;0.60;;;19.40;69.90;;;;;;5006469;28;20430;-70
2023/10/20 12:52:20;;;;;;;1.20;0.80;;;19.40;70.20;;;;;;5008499;28;20426;-71
2023/10/20 12:54:46;;;;;;;1.40;0.60;;;19.20;69.70;;;;;;4999128;28;20921;-71
2023/10/20 12:57:12;;;;;;;2.30;0.60;;;19.00;70.20;;;;;;4998509;28;20218;-71
2023/10/20 12:59:38;;;;;;;1.93;0.60;;;18.90;69.80;;;;;;4997425;28;20189;-69
2023/10/20 13:02:04;;;;;;;1.47;0.73;;;18.90;69.70;;;;;;5000002;28;20433;-72
2023/10/20 13:04:33;;;;;;;2.53;0.70;;;19.00;69.70;;;;;;4998113;28;20428;-71
2023/10/20 13:06:58;;;;;;;1.30;0.80;;;19.00;69.70;;;;;;4998767;28;20206;-71
2023/10/20 13:09:24;;;;;;;1.73;0.60;;;19.00;69.20;;;;;;5001046;28;20432;-71
2023/10/20 13:11:49;;;;;;;0.80;0.57;;;19.00;69.50;;;;;;4998830;28;20215;-71
2023/10/20 13:14:15;;;;;;;1.63;0.70;;;18.90;69.10;;;;;;5001613;28;20217;-72
2023/10/20 13:16:40;;;;;;;1.73;0.60;;;18.90;69.40;;;;;;5001245;28;20221;-71